sensor_id;sensor_type;location;lat;lon;timestamp;temperature;humidity
6252;DHT22;3159;52.414;9.784;2023-03-23T00:00:47;13.50;99.90
6252;DHT22;3159;52.414;9.784;2023-03-23T00:03:15;13.40;99.90
6252;DHT22;3159;52.414;9.784;2023-03-23T00:05:42;13.40;99.90
6252;DHT22;3159;52.414;9.784;2023-03-23T00:08:17;13.40;99.90
6252;DHT22;3159;52.414;9.784;2023-03-23T00:10:48;13.20;99.90
6252;DHT22;3159;52.414;9.784;2023-03-23T00:13:18;13.20;99.90
6252;DHT22;3159;52.414;9.784;2023-03-23T00:15:45;13.00;99.90
6252;DHT22;3159;52.414;9.784;2023-03-23T00:18:15;13.00;99.90
6252;DHT22;3159;52.414;9.784;2023-03-23T00:20:48;13.00;99.90
6252;DHT22;3159;52.414;9.784;2023-03-23T00:23:15;13.00;99.90
6252;DHT22;3159;52.414;9.784;2023-03-23T00:25:46;13.00;99.90
6252;DHT22;3159;52.414;9.784;2023-03-23T00:28:13;13.00;99.90
6252;DHT22;3159;52.414;9.784;2023-03-23T00:30:40;13.00;99.90
6252;DHT22;3159;52.414;9.784;2023-03-23T00:33:10;12.90;99.90
6252;DHT22;3159;52.414;9.784;2023-03-23T00:35:40;12.90;99.90
6252;DHT22;3159;52.414;9.784;2023-03-23T00:38:10;12.90;99.90
6252;DHT22;3159;52.414;9.784;2023-03-23T00:40:36;12.90;99.90
6252;DHT22;3159;52.414;9.784;2023-03-23T00:43:03;12.80;99.90
6252;DHT22;3159;52.414;9.784;2023-03-23T00:45:30;12.80;99.90
6252;DHT22;3159;52.414;9.784;2023-03-23T00:48:00;12.80;99.90
6252;DHT22;3159;52.414;9.784;2023-03-23T00:50:29;12.80;99.90
6252;DHT22;3159;52.414;9.784;2023-03-23T00:52:57;12.80;99.90
6252;DHT22;3159;52.414;9.784;2023-03-23T00:55:25;12.80;99.90
6252;DHT22;3159;52.414;9.784;2023-03-23T00:57:51;12.70;99.90
6252;DHT22;3159;52.414;9.784;2023-03-23T01:00:19;12.70;99.90
6252;DHT22;3159;52.414;9.784;2023-03-23T01:02:46;12.70;99.90
6252;DHT22;3159;52.414;9.784;2023-03-23T01:05:13;12.70;99.90
6252;DHT22;3159;52.414;9.784;2023-03-23T01:07:41;12.70;99.90
6252;DHT22;3159;52.414;9.784;2023-03-23T01:10:12;12.60;99.90
6252;DHT22;3159;52.414;9.784;2023-03-23T01:12:42;12.70;99.90
6252;DHT22;3159;52.414;9.784;2023-03-23T01:15:09;12.70;99.90
6252;DHT22;3159;52.414;9.784;2023-03-23T01:17:39;12.60;99.90
6252;DHT22;3159;52.414;9.784;2023-03-23T01:20:07;12.60;99.90
6252;DHT22;3159;52.414;9.784;2023-03-23T01:22:34;12.60;99.90
6252;DHT22;3159;52.414;9.784;2023-03-23T01:25:01;12.50;99.90
6252;DHT22;3159;52.414;9.784;2023-03-23T01:27:29;12.50;99.90
6252;DHT22;3159;52.414;9.784;2023-03-23T01:29:56;12.50;99.90
6252;DHT22;3159;52.414;9.784;2023-03-23T01:32:23;12.50;99.90
6252;DHT22;3159;52.414;9.784;2023-03-23T01:34:50;12.40;99.90
6252;DHT22;3159;52.414;9.784;2023-03-23T01:37:17;12.40;99.90
6252;DHT22;3159;52.414;9.784;2023-03-23T01:39:45;12.40;99.90
6252;DHT22;3159;52.414;9.784;2023-03-23T01:42:12;12.40;99.90
6252;DHT22;3159;52.414;9.784;2023-03-23T01:47:41;12.40;99.90
6252;DHT22;3159;52.414;9.784;2023-03-23T01:50:08;12.40;99.90
6252;DHT22;3159;52.414;9.784;2023-03-23T01:52:35;12.40;99.90
6252;DHT22;3159;52.414;9.784;2023-03-23T01:55:03;12.50;99.90
6252;DHT22;3159;52.414;9.784;2023-03-23T01:57:31;12.40;99.90
6252;DHT22;3159;52.414;9.784;2023-03-23T02:00:01;12.40;99.90
6252;DHT22;3159;52.414;9.784;2023-03-23T02:02:34;12.40;99.90
6252;DHT22;3159;52.414;9.784;2023-03-23T02:05:09;12.40;99.90
6252;DHT22;3159;52.414;9.784;2023-03-23T02:07:37;12.40;99.90
6252;DHT22;3159;52.414;9.784;2023-03-23T02:10:05;12.40;99.90
6252;DHT22;3159;52.414;9.784;2023-03-23T02:12:33;12.40;99.90
6252;DHT22;3159;52.414;9.784;2023-03-23T02:15:00;12.40;99.90
6252;DHT22;3159;52.414;9.784;2023-03-23T02:17:33;12.50;99.90
6252;DHT22;3159;52.414;9.784;2023-03-23T02:20:17;12.40;99.90
6252;DHT22;3159;52.414;9.784;2023-03-23T02:25:52;12.60;99.90
6252;DHT22;3159;52.414;9.784;2023-03-23T02:28:40;12.40;99.90
6252;DHT22;3159;52.414;9.784;2023-03-23T02:34:15;12.50;99.90
6252;DHT22;3159;52.414;9.784;2023-03-23T02:36:46;12.40;99.90
6252;DHT22;3159;52.414;9.784;2023-03-23T02:39:19;12.50;99.90
6252;DHT22;3159;52.414;9.784;2023-03-23T02:41:50;12.50;99.90
6252;DHT22;3159;52.414;9.784;2023-03-23T02:44:19;12.50;99.90
6252;DHT22;3159;52.414;9.784;2023-03-23T02:46:48;12.50;99.90
6252;DHT22;3159;52.414;9.784;2023-03-23T02:49:17;12.50;99.90
6252;DHT22;3159;52.414;9.784;2023-03-23T02:51:46;12.40;99.90
6252;DHT22;3159;52.414;9.784;2023-03-23T02:54:15;12.40;99.90
6252;DHT22;3159;52.414;9.784;2023-03-23T02:56:43;12.40;99.90
6252;DHT22;3159;52.414;9.784;2023-03-23T02:59:10;12.40;99.90
6252;DHT22;3159;52.414;9.784;2023-03-23T03:01:59;12.40;99.90
6252;DHT22;3159;52.414;9.784;2023-03-23T03:04:30;12.50;99.90
6252;DHT22;3159;52.414;9.784;2023-03-23T03:07:32;12.50;99.90
6252;DHT22;3159;52.414;9.784;2023-03-23T03:10:02;12.50;99.90
6252;DHT22;3159;52.414;9.784;2023-03-23T03:12:37;12.40;99.90
6252;DHT22;3159;52.414;9.784;2023-03-23T03:15:13;12.50;99.90
6252;DHT22;3159;52.414;9.784;2023-03-23T03:17:49;12.50;99.90
6252;DHT22;3159;52.414;9.784;2023-03-23T03:20:19;12.40;99.90
6252;DHT22;3159;52.414;9.784;2023-03-23T03:22:47;12.30;99.90
6252;DHT22;3159;52.414;9.784;2023-03-23T03:25:15;12.30;99.90
6252;DHT22;3159;52.414;9.784;2023-03-23T03:27:43;12.30;99.90
6252;DHT22;3159;52.414;9.784;2023-03-23T03:30:17;12.30;99.90
6252;DHT22;3159;52.414;9.784;2023-03-23T03:32:48;12.30;99.90
6252;DHT22;3159;52.414;9.784;2023-03-23T03:35:16;12.30;99.90
6252;DHT22;3159;52.414;9.784;2023-03-23T03:37:45;12.30;99.90
6252;DHT22;3159;52.414;9.784;2023-03-23T03:40:15;12.20;99.90
6252;DHT22;3159;52.414;9.784;2023-03-23T03:42:43;12.30;99.90
6252;DHT22;3159;52.414;9.784;2023-03-23T03:45:12;12.30;99.90
6252;DHT22;3159;52.414;9.784;2023-03-23T03:47:39;12.30;99.90
6252;DHT22;3159;52.414;9.784;2023-03-23T03:50:07;12.30;99.90
6252;DHT22;3159;52.414;9.784;2023-03-23T03:52:35;12.20;99.90
6252;DHT22;3159;52.414;9.784;2023-03-23T03:55:06;12.20;99.90
6252;DHT22;3159;52.414;9.784;2023-03-23T03:57:33;12.20;99.90
6252;DHT22;3159;52.414;9.784;2023-03-23T04:00:00;12.20;99.90
6252;DHT22;3159;52.414;9.784;2023-03-23T04:02:38;12.20;99.90
6252;DHT22;3159;52.414;9.784;2023-03-23T04:05:06;12.20;99.90
6252;DHT22;3159;52.414;9.784;2023-03-23T04:07:34;12.20;99.90
6252;DHT22;3159;52.414;9.784;2023-03-23T04:10:05;12.20;99.90
6252;DHT22;3159;52.414;9.784;2023-03-23T04:12:33;12.20;99.90
6252;DHT22;3159;52.414;9.784;2023-03-23T04:15:01;12.20;99.90
6252;DHT22;3159;52.414;9.784;2023-03-23T04:17:28;12.30;99.90
6252;DHT22;3159;52.414;9.784;2023-03-23T04:19:55;12.20;99.90
6252;DHT22;3159;52.414;9.784;2023-03-23T04:22:22;12.20;99.90
6252;DHT22;3159;52.414;9.784;2023-03-23T04:24:57;12.20;99.90
6252;DHT22;3159;52.414;9.784;2023-03-23T04:27:28;12.20;99.90
6252;DHT22;3159;52.414;9.784;2023-03-23T04:29:55;12.20;99.90
6252;DHT22;3159;52.414;9.784;2023-03-23T04:32:23;12.20;99.90
6252;DHT22;3159;52.414;9.784;2023-03-23T04:34:54;12.20;99.90
6252;DHT22;3159;52.414;9.784;2023-03-23T04:37:21;12.30;99.90
6252;DHT22;3159;52.414;9.784;2023-03-23T04:39:51;12.30;99.90
6252;DHT22;3159;52.414;9.784;2023-03-23T04:42:27;12.30;99.90
6252;DHT22;3159;52.414;9.784;2023-03-23T04:44:55;12.30;99.90
6252;DHT22;3159;52.414;9.784;2023-03-23T04:47:22;12.30;99.90
6252;DHT22;3159;52.414;9.784;2023-03-23T04:49:49;12.30;99.90
6252;DHT22;3159;52.414;9.784;2023-03-23T04:52:16;12.30;99.90
6252;DHT22;3159;52.414;9.784;2023-03-23T04:54:43;12.30;99.90
6252;DHT22;3159;52.414;9.784;2023-03-23T04:57:09;12.30;99.90
6252;DHT22;3159;52.414;9.784;2023-03-23T04:59:39;12.40;99.90
6252;DHT22;3159;52.414;9.784;2023-03-23T05:02:06;12.30;99.90
6252;DHT22;3159;52.414;9.784;2023-03-23T05:04:33;12.20;99.90
6252;DHT22;3159;52.414;9.784;2023-03-23T05:07:00;12.20;99.90
6252;DHT22;3159;52.414;9.784;2023-03-23T05:09:26;12.20;99.90
6252;DHT22;3159;52.414;9.784;2023-03-23T05:11:53;12.30;99.90
6252;DHT22;3159;52.414;9.784;2023-03-23T05:14:20;12.20;99.90
6252;DHT22;3159;52.414;9.784;2023-03-23T05:16:48;12.10;99.90
6252;DHT22;3159;52.414;9.784;2023-03-23T05:19:17;12.20;99.90
6252;DHT22;3159;52.414;9.784;2023-03-23T05:21:45;12.20;99.90
6252;DHT22;3159;52.414;9.784;2023-03-23T05:24:12;12.20;99.90
6252;DHT22;3159;52.414;9.784;2023-03-23T05:26:39;12.20;99.90
6252;DHT22;3159;52.414;9.784;2023-03-23T05:29:06;12.10;99.90
6252;DHT22;3159;52.414;9.784;2023-03-23T05:31:33;12.10;99.90
6252;DHT22;3159;52.414;9.784;2023-03-23T05:34:01;12.10;99.90
6252;DHT22;3159;52.414;9.784;2023-03-23T05:36:29;12.10;99.90
6252;DHT22;3159;52.414;9.784;2023-03-23T05:38:55;12.20;99.90
6252;DHT22;3159;52.414;9.784;2023-03-23T05:41:25;12.20;99.90
6252;DHT22;3159;52.414;9.784;2023-03-23T05:43:52;12.20;99.90
6252;DHT22;3159;52.414;9.784;2023-03-23T05:46:19;12.10;99.90
6252;DHT22;3159;52.414;9.784;2023-03-23T05:48:45;12.10;99.90
6252;DHT22;3159;52.414;9.784;2023-03-23T05:51:14;12.10;99.90
6252;DHT22;3159;52.414;9.784;2023-03-23T05:53:41;12.10;99.90
6252;DHT22;3159;52.414;9.784;2023-03-23T05:56:08;12.20;99.90
6252;DHT22;3159;52.414;9.784;2023-03-23T05:58:34;12.20;99.90
6252;DHT22;3159;52.414;9.784;2023-03-23T06:01:05;12.20;99.90
6252;DHT22;3159;52.414;9.784;2023-03-23T06:03:32;12.10;99.90
6252;DHT22;3159;52.414;9.784;2023-03-23T06:06:01;12.20;99.90
6252;DHT22;3159;52.414;9.784;2023-03-23T06:08:29;12.10;99.90
6252;DHT22;3159;52.414;9.784;2023-03-23T06:10:56;12.10;99.90
6252;DHT22;3159;52.414;9.784;2023-03-23T06:13:23;12.10;99.90
6252;DHT22;3159;52.414;9.784;2023-03-23T06:15:50;12.20;99.90
6252;DHT22;3159;52.414;9.784;2023-03-23T06:18:22;12.20;99.90
6252;DHT22;3159;52.414;9.784;2023-03-23T06:20:49;12.20;99.90
6252;DHT22;3159;52.414;9.784;2023-03-23T06:23:16;12.20;99.90
6252;DHT22;3159;52.414;9.784;2023-03-23T06:25:44;12.30;99.90
6252;DHT22;3159;52.414;9.784;2023-03-23T06:28:11;12.30;99.90
6252;DHT22;3159;52.414;9.784;2023-03-23T06:30:38;12.30;99.90
6252;DHT22;3159;52.414;9.784;2023-03-23T06:33:05;12.30;99.90
6252;DHT22;3159;52.414;9.784;2023-03-23T06:35:35;12.30;99.90
6252;DHT22;3159;52.414;9.784;2023-03-23T06:38:01;12.20;99.90
6252;DHT22;3159;52.414;9.784;2023-03-23T06:40:28;12.30;99.90
6252;DHT22;3159;52.414;9.784;2023-03-23T06:42:58;12.20;99.90
6252;DHT22;3159;52.414;9.784;2023-03-23T06:45:25;12.30;99.90
6252;DHT22;3159;52.414;9.784;2023-03-23T06:47:52;12.30;99.90
6252;DHT22;3159;52.414;9.784;2023-03-23T06:50:19;12.30;99.90
6252;DHT22;3159;52.414;9.784;2023-03-23T06:52:46;12.30;99.90
6252;DHT22;3159;52.414;9.784;2023-03-23T06:55:13;12.40;99.90
6252;DHT22;3159;52.414;9.784;2023-03-23T06:57:40;12.40;99.90
6252;DHT22;3159;52.414;9.784;2023-03-23T07:00:10;12.40;99.90
6252;DHT22;3159;52.414;9.784;2023-03-23T07:02:39;12.40;99.90
6252;DHT22;3159;52.414;9.784;2023-03-23T07:05:06;12.40;99.90
6252;DHT22;3159;52.414;9.784;2023-03-23T07:07:34;12.50;99.90
6252;DHT22;3159;52.414;9.784;2023-03-23T07:10:01;12.50;99.90
6252;DHT22;3159;52.414;9.784;2023-03-23T07:12:28;12.50;99.90
6252;DHT22;3159;52.414;9.784;2023-03-23T07:14:55;12.50;99.90
6252;DHT22;3159;52.414;9.784;2023-03-23T07:17:23;12.50;99.90
6252;DHT22;3159;52.414;9.784;2023-03-23T07:19:50;12.50;99.90
6252;DHT22;3159;52.414;9.784;2023-03-23T07:22:17;12.60;99.90
6252;DHT22;3159;52.414;9.784;2023-03-23T07:24:44;12.60;99.90
6252;DHT22;3159;52.414;9.784;2023-03-23T07:27:11;12.60;99.90
6252;DHT22;3159;52.414;9.784;2023-03-23T07:29:38;12.70;99.90
6252;DHT22;3159;52.414;9.784;2023-03-23T07:32:05;12.70;99.90
6252;DHT22;3159;52.414;9.784;2023-03-23T07:34:33;12.80;99.90
6252;DHT22;3159;52.414;9.784;2023-03-23T07:37:01;12.80;99.90
6252;DHT22;3159;52.414;9.784;2023-03-23T07:39:28;12.80;99.90
6252;DHT22;3159;52.414;9.784;2023-03-23T07:41:54;12.80;99.90
6252;DHT22;3159;52.414;9.784;2023-03-23T07:44:22;12.90;99.90
6252;DHT22;3159;52.414;9.784;2023-03-23T07:46:49;13.00;99.90
6252;DHT22;3159;52.414;9.784;2023-03-23T07:49:16;13.20;99.90
6252;DHT22;3159;52.414;9.784;2023-03-23T07:51:45;13.40;99.90
6252;DHT22;3159;52.414;9.784;2023-03-23T07:54:12;13.50;99.90
6252;DHT22;3159;52.414;9.784;2023-03-23T07:56:40;13.60;99.90
6252;DHT22;3159;52.414;9.784;2023-03-23T07:59:07;13.60;99.90
6252;DHT22;3159;52.414;9.784;2023-03-23T08:01:34;13.60;99.90
6252;DHT22;3159;52.414;9.784;2023-03-23T08:04:01;13.60;99.90
6252;DHT22;3159;52.414;9.784;2023-03-23T08:06:27;13.60;99.90
6252;DHT22;3159;52.414;9.784;2023-03-23T08:08:56;13.70;99.90
6252;DHT22;3159;52.414;9.784;2023-03-23T08:11:23;13.80;99.90
6252;DHT22;3159;52.414;9.784;2023-03-23T08:13:50;14.00;99.90
6252;DHT22;3159;52.414;9.784;2023-03-23T08:16:17;14.10;99.90
6252;DHT22;3159;52.414;9.784;2023-03-23T08:18:45;14.00;99.90
6252;DHT22;3159;52.414;9.784;2023-03-23T08:21:12;13.90;99.90
6252;DHT22;3159;52.414;9.784;2023-03-23T08:23:39;13.90;99.90
6252;DHT22;3159;52.414;9.784;2023-03-23T08:26:08;14.20;99.90
6252;DHT22;3159;52.414;9.784;2023-03-23T08:28:35;14.40;99.90
6252;DHT22;3159;52.414;9.784;2023-03-23T08:31:06;14.10;99.90
6252;DHT22;3159;52.414;9.784;2023-03-23T08:33:33;14.10;99.90
6252;DHT22;3159;52.414;9.784;2023-03-23T08:36:00;14.00;99.90
6252;DHT22;3159;52.414;9.784;2023-03-23T08:38:29;13.90;99.90
6252;DHT22;3159;52.414;9.784;2023-03-23T08:40:58;13.90;99.90
6252;DHT22;3159;52.414;9.784;2023-03-23T08:43:27;13.90;99.90
6252;DHT22;3159;52.414;9.784;2023-03-23T08:45:54;13.90;99.90
6252;DHT22;3159;52.414;9.784;2023-03-23T08:48:21;13.90;99.90
6252;DHT22;3159;52.414;9.784;2023-03-23T08:50:48;13.90;99.90
6252;DHT22;3159;52.414;9.784;2023-03-23T08:53:17;14.00;99.90
6252;DHT22;3159;52.414;9.784;2023-03-23T08:55:46;13.90;99.90
6252;DHT22;3159;52.414;9.784;2023-03-23T08:58:13;14.00;99.90
6252;DHT22;3159;52.414;9.784;2023-03-23T09:00:41;13.90;99.90
6252;DHT22;3159;52.414;9.784;2023-03-23T09:03:08;14.10;99.90
6252;DHT22;3159;52.414;9.784;2023-03-23T09:05:34;14.00;99.90
6252;DHT22;3159;52.414;9.784;2023-03-23T09:08:04;14.00;99.90
6252;DHT22;3159;52.414;9.784;2023-03-23T09:10:31;14.00;99.90
6252;DHT22;3159;52.414;9.784;2023-03-23T09:12:58;13.90;99.90
6252;DHT22;3159;52.414;9.784;2023-03-23T09:15:25;13.90;99.90
6252;DHT22;3159;52.414;9.784;2023-03-23T09:17:53;13.80;99.90
6252;DHT22;3159;52.414;9.784;2023-03-23T09:20:23;13.80;99.90
6252;DHT22;3159;52.414;9.784;2023-03-23T09:22:52;13.90;99.90
6252;DHT22;3159;52.414;9.784;2023-03-23T09:25:21;13.90;99.90
6252;DHT22;3159;52.414;9.784;2023-03-23T09:27:51;13.80;99.90
6252;DHT22;3159;52.414;9.784;2023-03-23T09:30:22;13.80;99.90
6252;DHT22;3159;52.414;9.784;2023-03-23T09:32:49;13.80;99.90
6252;DHT22;3159;52.414;9.784;2023-03-23T09:35:17;13.90;99.90
6252;DHT22;3159;52.414;9.784;2023-03-23T09:37:47;14.00;99.90
6252;DHT22;3159;52.414;9.784;2023-03-23T09:40:18;13.90;99.90
6252;DHT22;3159;52.414;9.784;2023-03-23T09:42:57;13.90;99.90
6252;DHT22;3159;52.414;9.784;2023-03-23T09:45:32;13.90;99.90
6252;DHT22;3159;52.414;9.784;2023-03-23T09:48:16;14.00;99.90
6252;DHT22;3159;52.414;9.784;2023-03-23T09:50:52;14.00;99.90
6252;DHT22;3159;52.414;9.784;2023-03-23T09:53:24;14.00;99.90
6252;DHT22;3159;52.414;9.784;2023-03-23T09:55:53;13.90;99.90
6252;DHT22;3159;52.414;9.784;2023-03-23T09:58:24;13.90;99.90
6252;DHT22;3159;52.414;9.784;2023-03-23T10:00:56;13.90;99.90
6252;DHT22;3159;52.414;9.784;2023-03-23T10:03:26;13.90;99.90
6252;DHT22;3159;52.414;9.784;2023-03-23T10:05:55;13.80;99.90
6252;DHT22;3159;52.414;9.784;2023-03-23T10:08:24;13.90;99.90
6252;DHT22;3159;52.414;9.784;2023-03-23T10:10:58;13.90;99.90
6252;DHT22;3159;52.414;9.784;2023-03-23T10:13:37;13.80;99.90
6252;DHT22;3159;52.414;9.784;2023-03-23T10:16:09;13.90;99.90
6252;DHT22;3159;52.414;9.784;2023-03-23T10:18:41;13.90;99.90
6252;DHT22;3159;52.414;9.784;2023-03-23T10:21:13;14.00;99.90
6252;DHT22;3159;52.414;9.784;2023-03-23T10:23:51;13.90;99.90
6252;DHT22;3159;52.414;9.784;2023-03-23T10:26:31;13.90;99.90
6252;DHT22;3159;52.414;9.784;2023-03-23T10:29:07;14.00;99.90
6252;DHT22;3159;52.414;9.784;2023-03-23T10:31:38;14.00;99.90
6252;DHT22;3159;52.414;9.784;2023-03-23T10:34:10;14.00;99.90
6252;DHT22;3159;52.414;9.784;2023-03-23T10:36:50;14.10;99.90
6252;DHT22;3159;52.414;9.784;2023-03-23T10:39:20;14.10;99.90
6252;DHT22;3159;52.414;9.784;2023-03-23T10:41:48;14.30;99.90
6252;DHT22;3159;52.414;9.784;2023-03-23T10:44:19;14.30;99.90
6252;DHT22;3159;52.414;9.784;2023-03-23T10:46:51;14.30;99.90
6252;DHT22;3159;52.414;9.784;2023-03-23T10:49:23;14.50;99.90
6252;DHT22;3159;52.414;9.784;2023-03-23T10:51:57;14.40;99.90
6252;DHT22;3159;52.414;9.784;2023-03-23T10:54:31;14.40;99.90
6252;DHT22;3159;52.414;9.784;2023-03-23T10:57:00;14.50;99.90
6252;DHT22;3159;52.414;9.784;2023-03-23T10:59:29;14.70;99.90
6252;DHT22;3159;52.414;9.784;2023-03-23T11:02:00;14.70;99.90
6252;DHT22;3159;52.414;9.784;2023-03-23T11:04:30;14.80;99.90
6252;DHT22;3159;52.414;9.784;2023-03-23T11:07:01;14.80;99.90
6252;DHT22;3159;52.414;9.784;2023-03-23T11:09:36;15.10;99.90
6252;DHT22;3159;52.414;9.784;2023-03-23T11:12:03;15.30;99.90
6252;DHT22;3159;52.414;9.784;2023-03-23T11:14:31;15.50;99.90
6252;DHT22;3159;52.414;9.784;2023-03-23T11:17:01;15.40;99.90
6252;DHT22;3159;52.414;9.784;2023-03-23T11:19:30;15.50;99.90
6252;DHT22;3159;52.414;9.784;2023-03-23T11:22:05;15.60;99.90
6252;DHT22;3159;52.414;9.784;2023-03-23T11:24:34;15.60;99.90
6252;DHT22;3159;52.414;9.784;2023-03-23T11:27:02;15.60;99.90
6252;DHT22;3159;52.414;9.784;2023-03-23T11:29:33;15.40;99.90
6252;DHT22;3159;52.414;9.784;2023-03-23T11:32:04;15.50;99.90
6252;DHT22;3159;52.414;9.784;2023-03-23T11:34:34;15.40;99.90
6252;DHT22;3159;52.414;9.784;2023-03-23T11:37:05;15.40;99.90
6252;DHT22;3159;52.414;9.784;2023-03-23T11:39:45;15.60;99.90
6252;DHT22;3159;52.414;9.784;2023-03-23T11:42:17;15.50;99.90
6252;DHT22;3159;52.414;9.784;2023-03-23T11:44:45;15.60;99.90
6252;DHT22;3159;52.414;9.784;2023-03-23T11:47:17;15.50;99.90
6252;DHT22;3159;52.414;9.784;2023-03-23T11:49:50;15.50;99.90
6252;DHT22;3159;52.414;9.784;2023-03-23T11:52:28;15.30;99.90
6252;DHT22;3159;52.414;9.784;2023-03-23T11:55:00;15.10;99.90
6252;DHT22;3159;52.414;9.784;2023-03-23T11:57:29;15.20;99.90
6252;DHT22;3159;52.414;9.784;2023-03-23T11:59:56;15.10;99.90
6252;DHT22;3159;52.414;9.784;2023-03-23T12:02:38;15.10;99.90
6252;DHT22;3159;52.414;9.784;2023-03-23T12:05:30;15.10;99.90
6252;DHT22;3159;52.414;9.784;2023-03-23T12:08:10;15.00;99.90
6252;DHT22;3159;52.414;9.784;2023-03-23T12:10:45;15.00;99.90
6252;DHT22;3159;52.414;9.784;2023-03-23T12:13:27;14.90;99.90
6252;DHT22;3159;52.414;9.784;2023-03-23T12:16:02;14.70;99.90
6252;DHT22;3159;52.414;9.784;2023-03-23T12:18:43;14.20;99.90
6252;DHT22;3159;52.414;9.784;2023-03-23T12:21:18;14.00;99.90
6252;DHT22;3159;52.414;9.784;2023-03-23T12:23:51;13.70;99.90
6252;DHT22;3159;52.414;9.784;2023-03-23T12:26:21;13.80;99.90
6252;DHT22;3159;52.414;9.784;2023-03-23T12:29:22;13.80;99.90
6252;DHT22;3159;52.414;9.784;2023-03-23T12:32:00;13.80;99.90
6252;DHT22;3159;52.414;9.784;2023-03-23T12:34:37;13.50;99.90
6252;DHT22;3159;52.414;9.784;2023-03-23T12:37:22;13.50;99.90
6252;DHT22;3159;52.414;9.784;2023-03-23T12:40:10;13.40;99.90
6252;DHT22;3159;52.414;9.784;2023-03-23T12:42:51;13.20;99.90
6252;DHT22;3159;52.414;9.784;2023-03-23T12:45:25;13.10;99.90
6252;DHT22;3159;52.414;9.784;2023-03-23T12:47:57;13.30;99.90
6252;DHT22;3159;52.414;9.784;2023-03-23T12:50:27;13.30;99.90
6252;DHT22;3159;52.414;9.784;2023-03-23T12:52:58;13.30;99.90
6252;DHT22;3159;52.414;9.784;2023-03-23T12:55:31;13.10;99.90
6252;DHT22;3159;52.414;9.784;2023-03-23T12:58:02;13.10;99.90
6252;DHT22;3159;52.414;9.784;2023-03-23T13:00:34;13.10;99.90
6252;DHT22;3159;52.414;9.784;2023-03-23T13:03:20;13.10;99.90
6252;DHT22;3159;52.414;9.784;2023-03-23T13:05:52;13.20;99.90
6252;DHT22;3159;52.414;9.784;2023-03-23T13:08:22;13.30;99.90
6252;DHT22;3159;52.414;9.784;2023-03-23T13:10:54;13.10;99.90
6252;DHT22;3159;52.414;9.784;2023-03-23T13:13:24;13.00;99.90
6252;DHT22;3159;52.414;9.784;2023-03-23T13:16:02;13.10;99.90
6252;DHT22;3159;52.414;9.784;2023-03-23T13:18:44;13.00;99.90
6252;DHT22;3159;52.414;9.784;2023-03-23T13:21:18;13.30;99.90
6252;DHT22;3159;52.414;9.784;2023-03-23T13:23:48;13.20;99.90
6252;DHT22;3159;52.414;9.784;2023-03-23T13:26:20;13.20;99.90
6252;DHT22;3159;52.414;9.784;2023-03-23T13:28:54;13.20;99.90
6252;DHT22;3159;52.414;9.784;2023-03-23T13:31:24;13.20;99.90
6252;DHT22;3159;52.414;9.784;2023-03-23T13:33:53;13.20;99.90
6252;DHT22;3159;52.414;9.784;2023-03-23T13:36:28;12.90;99.90
6252;DHT22;3159;52.414;9.784;2023-03-23T13:38:58;12.90;99.90
6252;DHT22;3159;52.414;9.784;2023-03-23T13:41:27;12.90;99.90
6252;DHT22;3159;52.414;9.784;2023-03-23T13:44:05;12.80;99.90
6252;DHT22;3159;52.414;9.784;2023-03-23T13:46:33;12.70;99.90
6252;DHT22;3159;52.414;9.784;2023-03-23T13:49:16;12.80;99.90
6252;DHT22;3159;52.414;9.784;2023-03-23T13:52:06;12.80;99.90
6252;DHT22;3159;52.414;9.784;2023-03-23T13:54:42;12.80;99.90
6252;DHT22;3159;52.414;9.784;2023-03-23T13:57:34;12.60;99.90
6252;DHT22;3159;52.414;9.784;2023-03-23T14:00:27;12.50;99.90
6252;DHT22;3159;52.414;9.784;2023-03-23T14:03:00;12.50;99.90
6252;DHT22;3159;52.414;9.784;2023-03-23T14:05:32;12.60;99.90
6252;DHT22;3159;52.414;9.784;2023-03-23T14:08:01;12.70;99.90
6252;DHT22;3159;52.414;9.784;2023-03-23T14:10:35;12.80;99.90
6252;DHT22;3159;52.414;9.784;2023-03-23T14:13:05;12.80;99.90
6252;DHT22;3159;52.414;9.784;2023-03-23T14:15:42;12.70;99.90
6252;DHT22;3159;52.414;9.784;2023-03-23T14:18:14;12.70;99.90
6252;DHT22;3159;52.414;9.784;2023-03-23T14:20:43;12.70;99.90
6252;DHT22;3159;52.414;9.784;2023-03-23T14:23:15;12.80;99.90
6252;DHT22;3159;52.414;9.784;2023-03-23T14:25:43;12.70;99.90
6252;DHT22;3159;52.414;9.784;2023-03-23T14:28:18;12.70;99.90
6252;DHT22;3159;52.414;9.784;2023-03-23T14:30:47;12.80;99.90
6252;DHT22;3159;52.414;9.784;2023-03-23T14:33:15;12.90;99.90
6252;DHT22;3159;52.414;9.784;2023-03-23T14:35:43;13.00;99.90
6252;DHT22;3159;52.414;9.784;2023-03-23T14:38:15;13.00;99.90
6252;DHT22;3159;52.414;9.784;2023-03-23T14:40:43;12.90;99.90
6252;DHT22;3159;52.414;9.784;2023-03-23T14:43:12;12.90;99.90
6252;DHT22;3159;52.414;9.784;2023-03-23T14:45:43;13.00;99.90
6252;DHT22;3159;52.414;9.784;2023-03-23T14:48:13;13.00;99.90
6252;DHT22;3159;52.414;9.784;2023-03-23T14:50:42;13.10;99.90
6252;DHT22;3159;52.414;9.784;2023-03-23T14:53:18;13.00;99.90
6252;DHT22;3159;52.414;9.784;2023-03-23T14:55:48;13.00;99.90
6252;DHT22;3159;52.414;9.784;2023-03-23T14:58:18;12.90;99.90
6252;DHT22;3159;52.414;9.784;2023-03-23T15:00:51;13.00;99.90
6252;DHT22;3159;52.414;9.784;2023-03-23T15:03:20;13.10;99.90
6252;DHT22;3159;52.414;9.784;2023-03-23T15:05:51;13.10;99.90
6252;DHT22;3159;52.414;9.784;2023-03-23T15:08:22;13.10;99.90
6252;DHT22;3159;52.414;9.784;2023-03-23T15:10:57;13.00;99.90
6252;DHT22;3159;52.414;9.784;2023-03-23T15:13:26;13.10;99.90
6252;DHT22;3159;52.414;9.784;2023-03-23T15:16:05;13.00;99.90
6252;DHT22;3159;52.414;9.784;2023-03-23T15:18:36;13.20;99.90
6252;DHT22;3159;52.414;9.784;2023-03-23T15:21:18;13.10;99.90
6252;DHT22;3159;52.414;9.784;2023-03-23T15:23:45;13.10;99.90
6252;DHT22;3159;52.414;9.784;2023-03-23T15:26:25;13.00;99.90
6252;DHT22;3159;52.414;9.784;2023-03-23T15:29:10;13.10;99.90
6252;DHT22;3159;52.414;9.784;2023-03-23T15:31:44;13.10;99.90
6252;DHT22;3159;52.414;9.784;2023-03-23T15:34:17;13.10;99.90
6252;DHT22;3159;52.414;9.784;2023-03-23T15:36:46;13.10;99.90
6252;DHT22;3159;52.414;9.784;2023-03-23T15:39:16;13.00;99.90
6252;DHT22;3159;52.414;9.784;2023-03-23T15:41:48;12.90;99.90
6252;DHT22;3159;52.414;9.784;2023-03-23T15:44:27;13.00;99.90
6252;DHT22;3159;52.414;9.784;2023-03-23T15:47:12;13.00;99.90
6252;DHT22;3159;52.414;9.784;2023-03-23T15:49:40;13.00;99.90
6252;DHT22;3159;52.414;9.784;2023-03-23T15:52:10;13.00;99.90
6252;DHT22;3159;52.414;9.784;2023-03-23T15:54:37;13.20;99.90
6252;DHT22;3159;52.414;9.784;2023-03-23T15:57:04;13.40;99.90
6252;DHT22;3159;52.414;9.784;2023-03-23T15:59:31;13.60;99.90
6252;DHT22;3159;52.414;9.784;2023-03-23T16:01:58;13.80;99.90
6252;DHT22;3159;52.414;9.784;2023-03-23T16:04:26;14.10;99.90
6252;DHT22;3159;52.414;9.784;2023-03-23T16:06:55;14.20;99.90
6252;DHT22;3159;52.414;9.784;2023-03-23T16:09:23;14.10;99.90
6252;DHT22;3159;52.414;9.784;2023-03-23T16:11:50;14.00;99.90
6252;DHT22;3159;52.414;9.784;2023-03-23T16:14:17;14.10;99.90
6252;DHT22;3159;52.414;9.784;2023-03-23T16:16:45;13.90;99.90
6252;DHT22;3159;52.414;9.784;2023-03-23T16:19:14;13.90;99.90
6252;DHT22;3159;52.414;9.784;2023-03-23T16:21:42;14.00;99.90
6252;DHT22;3159;52.414;9.784;2023-03-23T16:24:10;14.10;99.90
6252;DHT22;3159;52.414;9.784;2023-03-23T16:26:37;13.90;99.90
6252;DHT22;3159;52.414;9.784;2023-03-23T16:29:10;13.70;99.90
6252;DHT22;3159;52.414;9.784;2023-03-23T16:31:37;13.90;99.90